Time;durP1;ratioP1;P1;durP2;ratioP2;P2;SDS_P1;SDS_P2;PMS_P1;PMS_P2;Temp;Humidity;BMP_temperature;BMP_pressure;BME280_temperature;BME280_humidity;BME280_pressure;Samples;Min_cycle;Max_cycle;Signal;HPM_P1;HPM_P2
2022/10/29 00:02:30;;;;;;;16.58;4.85;;;;;;;18.46;89.43;100407.03;12211028;19;20356;-79
2022/10/29 00:06:31;;;;;;;13.07;4.75;;;;;;;18.47;89.61;100417.06;12212599;19;20010;-78
2022/10/29 00:10:33;;;;;;;18.27;5.13;;;;;;;18.40;89.83;100405.41;12191049;19;20006;-78
2022/10/29 00:14:35;;;;;;;11.32;4.15;;;;;;;18.35;90.14;100409.06;12206610;19;20376;-79
2022/10/29 00:18:36;;;;;;;13.93;5.15;;;;;;;18.27;90.64;100406.88;12212372;19;20490;-79
2022/10/29 00:22:38;;;;;;;12.48;4.72;;;;;;;18.16;91.13;100408.84;12189531;19;20025;-78
2022/10/29 00:26:40;;;;;;;21.75;5.30;;;;;;;18.07;92.00;100412.53;12213263;19;20100;-79
2022/10/29 00:30:41;;;;;;;13.18;5.03;;;;;;;17.95;92.21;100396.97;12212721;19;20011;-79
2022/10/29 00:34:43;;;;;;;12.50;4.88;;;;;;;17.86;93.09;100397.84;12184677;19;20349;-79
2022/10/29 00:38:44;;;;;;;16.60;4.97;;;;;;;17.74;93.99;100398.94;12210690;19;20025;-79
2022/10/29 00:42:46;;;;;;;18.08;5.03;;;;;;;17.67;94.52;100400.38;12210766;19;20034;-78
2022/10/29 00:46:51;;;;;;;21.05;5.20;;;;;;;17.64;95.29;100395.34;12178475;19;20014;-79
2022/10/29 00:50:55;;;;;;;19.17;5.00;;;;;;;17.61;95.02;100393.97;12209708;19;20475;-80
2022/10/29 00:55:01;;;;;;;14.55;5.68;;;;;;;17.58;95.64;100391.75;12208671;19;20014;-79
2022/10/29 00:59:04;;;;;;;16.30;4.40;;;;;;;17.54;95.64;100402.63;12186889;19;20002;-79
2022/10/29 01:03:06;;;;;;;13.63;5.82;;;;;;;17.56;95.51;100399.56;12207834;19;20038;-79
2022/10/29 01:07:09;;;;;;;9.82;4.95;;;;;;;17.50;95.96;100389.53;12208654;19;20039;-79
2022/10/29 01:11:39;;;;;;;12.23;4.35;;;;;;;17.44;96.72;100404.59;12185892;19;20070;-78
2022/10/29 01:15:51;;;;;;;22.25;6.25;;;;;;;17.38;97.04;100402.94;12208813;19;20010;-79
2022/10/29 01:20:11;;;;;;;;;;;;;;;17.34;96.92;100397.09;12187049;19;20070;-78
2022/10/29 01:24:40;;;;;;;14.40;5.20;;;;;;;17.31;97.11;100392.91;12209375;19;20332;-78
2022/10/29 01:29:19;;;;;;;16.77;5.03;;;;;;;17.26;98.27;100390.13;12176649;19;20589;-78
2022/10/29 01:33:37;;;;;;;28.80;6.93;;;;;;;17.22;98.21;100399.31;12204842;19;20014;-78
2022/10/29 01:38:04;;;;;;;11.23;4.63;;;;;;;17.18;99.05;100385.13;12183380;19;20019;-78
2022/10/29 01:42:22;;;;;;;17.88;5.60;;;;;;;17.16;99.18;100390.13;12206888;19;20038;-78
2022/10/29 01:46:33;;;;;;;13.05;4.93;;;;;;;17.16;99.35;100387.34;12226538;19;20011;-78
2022/10/29 01:50:39;;;;;;;15.02;5.85;;;;;;;17.14;99.69;100386.81;12264960;19;20031;-80
2022/10/29 01:54:42;;;;;;;11.70;5.15;;;;;;;17.15;99.96;100370.94;12222828;19;20014;-80
2022/10/29 01:58:47;;;;;;;15.70;5.43;;;;;;;17.14;100.00;100378.44;12199334;19;20011;-80
2022/10/29 02:03:07;;;;;;;15.02;5.32;;;;;;;17.08;100.00;100376.78;12220436;19;20006;-79
2022/10/29 02:07:30;;;;;;;16.92;5.00;;;;;;;17.01;100.00;100379.00;12217421;19;20007;-79
2022/10/29 02:11:49;;;;;;;16.75;5.72;;;;;;;16.90;100.00;100374.56;12195722;19;20025;-79
2022/10/29 02:15:54;;;;;;;14.75;5.25;;;;;;;16.79;100.00;100374.56;12216983;19;20010;-79
2022/10/29 02:19:55;;;;;;;15.68;5.10;;;;;;;16.69;100.00;100362.56;12191714;19;20010;-79
2022/10/29 02:23:57;;;;;;;15.45;6.43;;;;;;;16.60;100.00;100365.06;12217145;19;20097;-79
2022/10/29 02:27:59;;;;;;;16.85;5.95;;;;;;;16.55;100.00;100367.81;12215907;19;20014;-79
2022/10/29 02:32:00;;;;;;;18.58;5.90;;;;;;;16.50;100.00;100362.25;12193377;19;20007;-79
2022/10/29 02:36:02;;;;;;;15.15;5.47;;;;;;;16.43;100.00;100359.75;12215091;19;20511;-78
2022/10/29 02:40:04;;;;;;;16.87;6.50;;;;;;;16.38;100.00;100357.75;12215692;19;20011;-79
2022/10/29 02:44:06;;;;;;;11.23;5.40;;;;;;;16.33;100.00;100368.91;12191250;19;20026;-79
2022/10/29 02:48:08;;;;;;;16.83;6.07;;;;;;;16.30;100.00;100361.09;12217143;19;20271;-78
2022/10/29 02:52:09;;;;;;;14.95;5.32;;;;;;;16.30;100.00;100355.56;12216190;19;20381;-79
2022/10/29 02:56:11;;;;;;;20.27;5.25;;;;;;;16.33;100.00;100362.47;12192164;19;20035;-79
2022/10/29 03:00:13;;;;;;;23.23;5.95;;;;;;;16.36;100.00;100359.19;12214014;19;20373;-79
2022/10/29 03:04:15;;;;;;;17.13;6.40;;;;;;;16.38;100.00;100366.13;12208759;19;20401;-79
2022/10/29 03:08:17;;;;;;;14.05;5.55;;;;;;;16.35;100.00;100361.09;12188653;19;20014;-79
2022/10/29 03:12:19;;;;;;;14.38;5.43;;;;;;;16.37;100.00;100363.63;12209593;19;20006;-79
2022/10/29 03:16:21;;;;;;;12.30;5.10;;;;;;;16.30;100.00;100365.81;12194544;19;20047;-79
2022/10/29 03:20:22;;;;;;;14.68;5.00;;;;;;;16.24;100.00;100361.34;12212503;19;20003;-79
2022/10/29 03:24:24;;;;;;;18.58;6.07;;;;;;;16.17;100.00;100364.41;12209877;19;20357;-79
2022/10/29 03:28:29;;;;;;;14.37;6.57;;;;;;;16.11;100.00;100355.19;12188642;19;20033;-79
2022/10/29 03:32:41;;;;;;;16.05;5.25;;;;;;;16.05;100.00;100372.16;12209524;19;20014;-79
2022/10/29 03:36:43;;;;;;;13.98;5.25;;;;;;;15.94;100.00;100372.13;12208599;19;20007;-79
2022/10/29 03:40:45;;;;;;;11.68;6.65;;;;;;;15.87;100.00;100367.91;12191395;19;20034;-79
2022/10/29 03:44:46;;;;;;;16.40;5.97;;;;;;;15.80;100.00;100362.59;12210534;19;20029;-78
2022/10/29 03:48:49;;;;;;;17.35;5.50;;;;;;;15.71;100.00;100364.22;12206476;19;20062;-78
2022/10/29 03:52:50;;;;;;;24.48;6.45;;;;;;;15.65;100.00;100370.84;12185201;19;20054;-79
2022/10/29 03:56:52;;;;;;;14.18;5.57;;;;;;;15.60;100.00;100377.19;12209345;19;20006;-79
2022/10/29 04:01:03;;;;;;;19.42;5.47;;;;;;;15.53;100.00;100373.81;12207098;19;20011;-78
2022/10/29 04:05:05;;;;;;;15.30;5.38;;;;;;;15.47;100.00;100375.72;12184899;19;20116;-79
2022/10/29 04:09:06;;;;;;;16.35;6.20;;;;;;;15.47;100.00;100374.91;12208959;19;20025;-79
2022/10/29 04:13:08;;;;;;;12.77;6.32;;;;;;;15.46;100.00;100378.75;12207012;19;20089;-78
2022/10/29 04:17:11;;;;;;;16.30;6.25;;;;;;;15.43;100.00;100384.84;12186737;19;20645;-79
2022/10/29 04:21:12;;;;;;;15.00;6.43;;;;;;;15.42;100.00;100384.03;12207556;19;20022;-78
2022/10/29 04:25:34;;;;;;;14.02;5.38;;;;;;;15.52;100.00;100382.41;12187828;19;20014;-78
2022/10/29 04:29:55;;;;;;;14.00;5.60;;;;;;;15.62;100.00;100377.75;12207205;19;20015;-79
2022/10/29 04:33:57;;;;;;;12.75;5.55;;;;;;;15.71;100.00;100373.41;12205538;19;20559;-79
2022/10/29 04:37:59;;;;;;;17.38;5.35;;;;;;;15.81;100.00;100361.47;12184808;19;20149;-78
2022/10/29 04:42:00;;;;;;;16.02;5.90;;;;;;;15.89;100.00;100366.53;12207148;19;20027;-78
2022/10/29 04:46:02;;;;;;;16.00;6.20;;;;;;;15.98;100.00;100363.22;12207871;19;20006;-78
2022/10/29 04:50:04;;;;;;;13.60;5.40;;;;;;;16.04;100.00;100345.47;12185300;19;20010;-78
2022/10/29 04:54:05;;;;;;;13.88;6.63;;;;;;;16.08;100.00;100357.69;12204111;19;20015;-78
2022/10/29 04:58:12;;;;;;;19.55;5.97;;;;;;;16.11;100.00;100357.16;12204904;19;20023;-79
2022/10/29 05:02:13;;;;;;;11.48;5.38;;;;;;;16.10;100.00;100341.59;12183346;19;20014;-78
2022/10/29 05:06:15;;;;;;;20.63;8.30;;;;;;;16.13;100.00;100344.66;12204525;19;20054;-78
2022/10/29 05:10:17;;;;;;;18.88;6.25;;;;;;;16.15;100.00;100347.13;12218944;19;20030;-78
2022/10/29 05:14:18;;;;;;;13.63;5.63;;;;;;;16.16;100.00;100343.28;12234825;19;20007;-78
2022/10/29 05:18:20;;;;;;;15.57;5.20;;;;;;;16.16;100.00;100340.50;12259905;19;20027;-78
2022/10/29 05:22:21;;;;;;;21.83;6.22;;;;;;;16.17;100.00;100333.81;12237075;19;20027;-78
2022/10/29 05:26:23;;;;;;;16.98;6.03;;;;;;;16.18;100.00;100322.44;12259624;19;20010;-77
2022/10/29 05:30:24;;;;;;;15.55;5.90;;;;;;;16.19;100.00;100326.03;12273102;19;20011;-77
2022/10/29 05:34:26;;;;;;;16.38;6.15;;;;;;;16.20;100.00;100330.47;12245332;19;20010;-78
2022/10/29 05:38:28;;;;;;;15.60;5.47;;;;;;;16.20;100.00;100343.56;12267956;19;20006;-78
2022/10/29 05:42:30;;;;;;;12.80;5.20;;;;;;;16.20;100.00;100341.59;12266462;19;20027;-78
2022/10/29 05:46:32;;;;;;;14.10;5.90;;;;;;;16.18;100.00;100346.59;12197104;19;20042;-79
2022/10/29 05:50:34;;;;;;;17.48;5.78;;;;;;;16.16;100.00;100344.09;12216158;19;21101;-78
2022/10/29 05:54:35;;;;;;;22.83;6.03;;;;;;;16.15;100.00;100341.59;12212453;19;20011;-79
2022/10/29 05:58:37;;;;;;;13.98;5.28;;;;;;;16.12;100.00;100347.69;12194812;19;20017;-78
2022/10/29 06:02:42;;;;;;;14.48;6.00;;;;;;;16.11;100.00;100343.25;12214641;19;20010;-81
2022/10/29 06:06:43;;;;;;;10.60;5.60;;;;;;;16.11;100.00;100346.03;12213912;19;20364;-78
2022/10/29 06:10:45;;;;;;;14.68;5.10;;;;;;;16.11;100.00;100348.81;12194723;19;20017;-78
2022/10/29 06:14:47;;;;;;;14.82;5.40;;;;;;;16.09;100.00;100339.91;12213571;19;20049;-79
2022/10/29 06:18:48;;;;;;;12.23;5.78;;;;;;;16.10;100.00;100336.03;12215671;19;20014;-78
2022/10/29 06:22:56;;;;;;;14.40;6.07;;;;;;;16.12;100.00;100347.69;12193523;19;20031;-78
2022/10/29 06:26:59;;;;;;;13.43;5.43;;;;;;;16.11;100.00;100351.59;12213289;19;20006;-79
2022/10/29 06:31:01;;;;;;;13.45;5.45;;;;;;;16.11;100.00;100357.97;12215066;19;20014;-78
2022/10/29 06:35:03;;;;;;;17.80;5.55;;;;;;;16.13;100.00;100358.56;12187557;19;20014;-78
2022/10/29 06:39:05;;;;;;;11.68;5.38;;;;;;;16.17;100.00;100356.88;12213361;19;20480;-78
2022/10/29 06:43:10;;;;;;;14.20;5.55;;;;;;;16.22;100.00;100349.69;12214219;19;20006;-79
2022/10/29 06:47:12;;;;;;;18.15;6.05;;;;;;;16.25;100.00;100352.75;12193798;19;20405;-78
2022/10/29 06:51:13;;;;;;;12.80;5.93;;;;;;;16.28;100.00;100362.50;12214121;19;20010;-78
2022/10/29 06:55:16;;;;;;;18.45;6.00;;;;;;;16.30;100.00;100363.03;12213360;19;20002;-78
2022/10/29 06:59:17;;;;;;;17.30;7.00;;;;;;;16.32;100.00;100361.66;12190342;19;20007;-78
2022/10/29 07:03:21;;;;;;;17.58;7.55;;;;;;;16.37;100.00;100361.66;12245827;19;20040;-77
2022/10/29 07:07:23;;;;;;;20.85;7.30;;;;;;;16.41;100.00;100362.78;12220591;19;20021;-77
2022/10/29 07:11:44;;;;;;;20.15;7.43;;;;;;;16.44;100.00;100369.75;12249298;19;20046;-79
2022/10/29 07:15:46;;;;;;;15.68;6.97;;;;;;;16.47;100.00;100376.69;12251447;19;20011;-76
2022/10/29 07:19:48;;;;;;;16.73;6.18;;;;;;;16.52;100.00;100373.94;12201592;19;20014;-78
2022/10/29 07:23:51;;;;;;;19.63;7.72;;;;;;;16.58;100.00;100387.56;12208654;19;20031;-78
2022/10/29 07:27:52;;;;;;;;;;;;;;;16.65;100.00;100381.72;12187344;19;20018;-78
2022/10/29 07:31:54;;;;;;;15.30;6.18;;;;;;;16.72;100.00;100387.88;12184108;19;19907;-78
2022/10/29 07:35:57;;;;;;;14.38;6.68;;;;;;;16.77;100.00;100387.91;12213466;19;20032;-76
2022/10/29 07:39:59;;;;;;;15.02;7.22;;;;;;;16.85;100.00;100383.75;12211627;19;20353;-78
2022/10/29 07:44:01;;;;;;;13.20;6.38;;;;;;;16.93;100.00;100376.81;12193658;19;20010;-78
2022/10/29 07:48:08;;;;;;;14.07;7.10;;;;;;;17.06;100.00;100390.16;12215355;19;20011;-78
2022/10/29 07:52:10;;;;;;;14.35;6.35;;;;;;;17.16;100.00;100390.13;12212555;19;20108;-79
2022/10/29 07:56:12;;;;;;;14.65;6.13;;;;;;;17.29;100.00;100392.34;12191978;19;20031;-78
2022/10/29 08:00:14;;;;;;;18.48;7.00;;;;;;;17.40;100.00;100390.41;12262420;19;20035;-77
2022/10/29 08:04:17;;;;;;;;;;;;;;;17.56;100.00;100394.00;12221959;19;20053;-77
2022/10/29 08:08:18;;;;;;;15.40;6.57;;;;;;;17.65;100.00;100386.72;12190015;19;19978;-77
2022/10/29 08:12:20;;;;;;;12.68;6.68;;;;;;;17.76;100.00;100382.78;12218732;19;20021;-77
2022/10/29 08:16:22;;;;;;;18.87;6.77;;;;;;;17.84;100.00;100377.75;12209924;19;20018;-77
2022/10/29 08:20:26;;;;;;;15.10;7.13;;;;;;;17.90;100.00;100384.97;12189775;19;20252;-77
2022/10/29 08:24:28;;;;;;;18.02;6.22;;;;;;;17.99;100.00;100386.06;12208208;19;20003;-77
2022/10/29 08:28:30;;;;;;;22.73;7.40;;;;;;;18.15;100.00;100384.06;12189221;19;20022;-78
2022/10/29 08:32:36;;;;;;;17.92;6.72;;;;;;;18.33;100.00;100386.19;12209963;19;20021;-77
2022/10/29 08:36:38;;;;;;;19.90;6.32;;;;;;;18.43;100.00;100390.88;12209336;19;20090;-77
2022/10/29 08:40:58;;;;;;;17.88;6.25;;;;;;;18.55;100.00;100382.16;12178322;19;20010;-77
2022/10/29 08:45:20;;;;;;;18.50;6.20;;;;;;;18.70;100.00;100389.59;12205760;19;20614;-79
2022/10/29 08:49:30;;;;;;;14.77;6.25;;;;;;;18.85;100.00;100389.50;12213902;19;20018;-78
2022/10/29 08:53:42;;;;;;;15.70;6.30;;;;;;;19.00;100.00;100400.53;12189737;19;20030;-79
2022/10/29 08:57:55;;;;;;;14.13;6.97;;;;;;;19.06;99.16;100393.78;12205566;19;20117;-79
2022/10/29 09:01:57;;;;;;;19.60;7.00;;;;;;;19.28;99.15;100389.72;12197328;19;20006;-78
2022/10/29 09:06:12;;;;;;;19.27;7.82;;;;;;;19.37;98.29;100396.31;12220830;19;20010;-78
2022/10/29 09:10:40;;;;;;;15.43;7.10;;;;;;;19.38;97.54;100384.00;12224391;19;20014;-78
2022/10/29 09:14:49;;;;;;;16.65;6.32;;;;;;;19.44;98.05;100376.41;12198909;19;20014;-79
2022/10/29 09:19:19;;;;;;;19.50;7.40;;;;;;;19.48;97.11;100383.91;12208788;19;20467;-77
2022/10/29 09:23:43;;;;;;;23.13;6.78;;;;;;;19.59;96.80;100368.69;12184991;19;20007;-78
2022/10/29 09:27:45;;;;;;;;;;;;;;;19.62;96.05;100378.44;12209951;19;20382;-77
2022/10/29 09:31:52;;;;;;;16.25;7.13;;;;;;;19.61;96.83;100374.00;12186324;19;19915;-76
2022/10/29 09:35:57;;;;;;;14.75;5.97;;;;;;;19.62;96.82;100367.25;12216157;19;20013;-77
2022/10/29 09:40:03;;;;;;;11.88;6.05;;;;;;;19.69;97.55;100361.34;12213516;19;20356;-77
2022/10/29 09:44:18;;;;;;;15.48;6.65;;;;;;;19.75;98.36;100355.41;12191526;19;20034;-77
2022/10/29 09:48:36;;;;;;;11.75;5.70;;;;;;;19.83;97.91;100362.28;12212299;19;20010;-77
2022/10/29 09:52:42;;;;;;;14.02;5.80;;;;;;;19.94;98.38;100363.84;12192207;19;20014;-78
2022/10/29 09:56:46;;;;;;;17.83;7.00;;;;;;;20.04;97.05;100365.66;12210523;19;20007;-77
2022/10/29 10:00:56;;;;;;;17.83;7.38;;;;;;;20.16;97.09;100357.66;12211819;19;20404;-77
2022/10/29 10:05:04;;;;;;;14.30;6.50;;;;;;;20.37;96.97;100347.00;12189077;19;20002;-76
2022/10/29 10:09:06;;;;;;;15.68;6.65;;;;;;;20.60;96.49;100341.69;12211163;19;20019;-77
2022/10/29 10:13:12;;;;;;;12.23;5.28;;;;;;;20.82;96.16;100343.84;12210291;19;20026;-77
2022/10/29 10:17:18;;;;;;;13.15;4.93;;;;;;;21.04;92.40;100334.81;12188606;19;20007;-77
2022/10/29 10:21:27;;;;;;;13.40;5.65;;;;;;;21.23;89.95;100335.56;12215033;19;20018;-77
2022/10/29 10:25:32;;;;;;;18.33;5.60;;;;;;;21.42;88.39;100317.84;12190561;19;20026;-77
2022/10/29 10:29:34;;;;;;;12.13;5.50;;;;;;;21.70;85.77;100322.34;12211140;19;20021;-77
2022/10/29 10:33:43;;;;;;;16.35;5.68;;;;;;;22.07;84.13;100312.00;12210453;19;20404;-77
2022/10/29 10:37:44;;;;;;;11.77;5.10;;;;;;;22.30;81.20;100305.34;12190446;19;20087;-77
2022/10/29 10:41:48;;;;;;;17.63;4.87;;;;;;;22.61;78.48;100303.78;12204756;19;20532;-77
2022/10/29 10:45:59;;;;;;;14.40;5.32;;;;;;;22.99;76.89;100309.84;12214371;19;20368;-77
2022/10/29 10:50:27;;;;;;;13.02;4.57;;;;;;;23.19;72.39;100312.13;12188966;19;20011;-77
2022/10/29 10:54:40;;;;;;;12.23;4.30;;;;;;;23.42;72.75;100300.84;12207996;19;20015;-77
2022/10/29 10:58:49;;;;;;;11.25;3.85;;;;;;;23.48;66.97;100296.72;12186076;19;20014;-77
2022/10/29 11:03:10;;;;;;;9.10;3.92;;;;;;;23.69;68.26;100299.78;12209717;19;20011;-77
2022/10/29 11:07:13;;;;;;;15.38;4.18;;;;;;;23.76;67.04;100291.72;12209673;19;20634;-78
2022/10/29 11:11:21;;;;;;;14.07;4.50;;;;;;;23.82;64.69;100292.38;12187829;19;20021;-77
2022/10/29 11:15:37;;;;;;;11.18;4.13;;;;;;;24.14;64.83;100287.50;12208516;19;20038;-77
2022/10/29 11:19:44;;;;;;;11.75;4.55;;;;;;;24.45;64.97;100274.13;12187860;19;20357;-77
2022/10/29 11:23:58;;;;;;;11.63;3.47;;;;;;;24.67;62.32;100255.38;12203180;19;20018;-77
2022/10/29 11:28:04;;;;;;;16.02;4.57;;;;;;;25.00;61.64;100264.91;12206619;19;20006;-78
2022/10/29 11:32:14;;;;;;;13.45;4.53;;;;;;;25.47;58.74;100255.66;12188112;19;20018;-78
2022/10/29 11:36:25;;;;;;;12.38;3.75;;;;;;;25.79;60.36;100250.47;12201670;19;20018;-77
2022/10/29 11:40:45;;;;;;;11.88;4.50;;;;;;;25.81;59.48;100250.97;12212165;19;20361;-77
2022/10/29 11:44:47;;;;;;;15.00;4.50;;;;;;;26.03;60.58;100252.72;12185991;19;20118;-77
2022/10/29 11:49:15;;;;;;;11.38;4.05;;;;;;;26.75;58.53;100231.66;12204845;19;20027;-78
2022/10/29 11:53:35;;;;;;;11.90;4.35;;;;;;;27.36;55.66;100228.13;12186004;19;20035;-78
2022/10/29 11:57:45;;;;;;;11.48;4.60;;;;;;;27.13;54.34;100236.22;12213002;19;20017;-78
2022/10/29 12:02:16;;;;;;;10.57;4.68;;;;;;;26.77;55.52;100229.31;12193699;19;20011;-77
2022/10/29 12:06:43;;;;;;;9.10;4.22;;;;;;;26.31;56.74;100205.78;12206647;19;20010;-77
2022/10/29 12:11:06;;;;;;;16.55;4.03;;;;;;;25.89;58.13;100208.59;12187920;19;20021;-77
2022/10/29 12:15:30;;;;;;;9.60;4.28;;;;;;;25.43;59.67;100203.88;12207703;19;20015;-77
2022/10/29 12:19:57;;;;;;;10.48;4.78;;;;;;;24.82;62.91;100209.75;12187706;19;20026;-77
2022/10/29 12:24:04;;;;;;;11.85;6.10;;;;;;;24.50;65.41;100217.59;12207811;19;20047;-77
2022/10/29 12:28:18;;;;;;;13.38;5.90;;;;;;;24.14;66.63;100205.84;12206606;19;20484;-77
2022/10/29 12:32:30;;;;;;;13.35;5.75;;;;;;;23.97;67.83;100199.03;12196383;19;20042;-76
2022/10/29 12:36:58;;;;;;;13.70;5.70;;;;;;;23.73;68.73;100209.94;12252222;19;20065;-77
2022/10/29 12:41:05;;;;;;;16.05;5.53;;;;;;;23.49;70.00;100216.81;12209025;19;20007;-77
2022/10/29 12:45:12;;;;;;;12.02;5.43;;;;;;;23.25;72.26;100199.53;12204026;19;20035;-78
2022/10/29 12:49:42;;;;;;;16.40;6.00;;;;;;;23.23;72.24;100197.06;12201566;19;20034;-78
2022/10/29 12:53:58;;;;;;;13.07;5.38;;;;;;;23.15;72.70;100200.66;12182396;19;20006;-78
2022/10/29 12:58:38;;;;;;;17.35;6.53;;;;;;;23.23;71.75;100196.22;12207948;19;20010;-78
2022/10/29 13:02:43;;;;;;;11.88;5.43;;;;;;;23.36;71.22;100195.28;12186606;19;20021;-78
2022/10/29 13:06:56;;;;;;;17.17;6.65;;;;;;;23.33;71.63;100191.13;12207632;19;20046;-78
2022/10/29 13:10:58;;;;;;;14.30;5.65;;;;;;;23.50;71.22;100183.88;12186472;19;20011;-78
2022/10/29 13:15:08;;;;;;;21.13;5.67;;;;;;;23.65;71.34;100181.44;12203910;19;20018;-77
2022/10/29 13:19:19;;;;;;;14.02;5.35;;;;;;;23.82;71.12;100175.03;12209430;19;20027;-77
2022/10/29 13:23:21;;;;;;;11.13;4.80;;;;;;;23.79;71.00;100175.69;12179124;19;20014;-77
2022/10/29 13:27:25;;;;;;;14.10;5.43;;;;;;;23.67;71.67;100173.50;12207832;19;20139;-77
2022/10/29 13:31:41;;;;;;;15.60;4.50;;;;;;;23.64;71.00;100176.13;12209359;19;20022;-77
2022/10/29 13:35:56;;;;;;;15.75;6.05;;;;;;;23.71;70.62;100162.47;12177322;19;20015;-78
2022/10/29 13:40:29;;;;;;;14.48;5.43;;;;;;;23.77;71.83;100160.31;12212416;19;20002;-77
2022/10/29 13:44:31;;;;;;;18.58;5.38;;;;;;;23.74;72.38;100155.34;12167232;19;20006;-77
2022/10/29 13:48:35;;;;;;;26.43;6.77;;;;;;;23.57;73.08;100162.56;12204296;19;20018;-77
2022/10/29 13:52:39;;;;;;;11.75;5.70;;;;;;;23.58;73.50;100146.50;12197263;19;20007;-78
2022/10/29 13:56:57;;;;;;;16.50;6.97;;;;;;;23.53;72.96;100155.94;12217582;19;20010;-78
2022/10/29 14:01:01;;;;;;;19.10;6.43;;;;;;;23.39;73.74;100147.66;12220440;19;20013;-78
2022/10/29 14:05:24;;;;;;;17.23;6.30;;;;;;;23.38;74.41;100143.19;12197665;19;20010;-78
2022/10/29 14:09:41;;;;;;;16.65;6.00;;;;;;;23.41;74.71;100141.72;12218322;19;20015;-78
2022/10/29 14:13:47;;;;;;;16.95;6.07;;;;;;;23.43;74.69;100136.56;12195244;19;20011;-78
2022/10/29 14:17:48;;;;;;;15.60;6.00;;;;;;;23.46;74.63;100130.28;12217260;19;20011;-78
2022/10/29 14:21:51;;;;;;;17.87;6.60;;;;;;;23.40;75.28;100145.66;12214152;19;20416;-78
2022/10/29 14:25:58;;;;;;;22.70;7.22;;;;;;;23.24;76.67;100152.91;12195729;19;20014;-78
2022/10/29 14:30:18;;;;;;;20.80;7.30;;;;;;;23.13;77.69;100146.75;12222432;19;20007;-77
2022/10/29 14:34:27;;;;;;;17.25;6.85;;;;;;;23.07;78.20;100136.81;12217842;19;20015;-78
2022/10/29 14:38:39;;;;;;;14.70;6.82;;;;;;;22.97;79.12;100135.94;12196918;19;20114;-77
2022/10/29 14:42:45;;;;;;;18.90;5.90;;;;;;;22.82;79.96;100130.75;12215721;19;20011;-78
2022/10/29 14:47:06;;;;;;;17.80;6.60;;;;;;;22.58;81.30;100136.75;12191698;19;20071;-78
2022/10/29 14:51:17;;;;;;;18.73;7.55;;;;;;;22.29;82.95;100149.28;12248049;19;20014;-77
2022/10/29 14:55:23;;;;;;;18.73;6.35;;;;;;;22.17;83.66;100137.81;12261683;19;20023;-77
2022/10/29 14:59:27;;;;;;;15.98;5.95;;;;;;;21.96;85.33;100145.06;12238546;19;20631;-79
2022/10/29 15:03:32;;;;;;;15.02;7.15;;;;;;;21.92;86.05;100138.41;12223124;19;20029;-79
2022/10/29 15:07:35;;;;;;;15.77;6.38;;;;;;;21.81;87.50;100135.84;12192988;19;20015;-79
2022/10/29 15:11:46;;;;;;;14.35;6.00;;;;;;;21.68;88.91;100133.09;12217445;19;20015;-79
2022/10/29 15:15:59;;;;;;;13.35;6.28;;;;;;;21.48;91.16;100140.00;12220456;19;20006;-79
2022/10/29 15:20:03;;;;;;;;;;;;;;;21.22;93.36;100134.91;12191776;19;20011;-78
2022/10/29 15:24:09;;;;;;;15.80;6.25;;;;;;;21.09;93.40;100135.75;12190701;19;19945;-78
2022/10/29 15:28:22;;;;;;;22.27;7.53;;;;;;;20.89;96.21;100132.25;12206647;19;20010;-79
2022/10/29 15:32:26;;;;;;;15.88;6.43;;;;;;;20.76;97.42;100135.03;12196711;19;20041;-79
2022/10/29 15:36:52;;;;;;;18.23;6.40;;;;;;;20.63;98.47;100140.31;12212250;19;20023;-78
2022/10/29 15:41:18;;;;;;;16.05;6.22;;;;;;;20.53;98.99;100134.91;12193284;19;20011;-79
2022/10/29 15:45:26;;;;;;;17.45;5.32;;;;;;;20.42;99.61;100134.22;12211510;19;20019;-79
2022/10/29 15:49:28;;;;;;;16.88;6.10;;;;;;;20.33;100.00;100141.66;12218230;19;20026;-79
2022/10/29 15:53:34;;;;;;;13.07;5.60;;;;;;;20.22;100.00;100146.59;12192007;19;20006;-79
2022/10/29 15:57:35;;;;;;;15.05;5.45;;;;;;;20.06;100.00;100136.00;12214618;19;20015;-80
2022/10/29 16:01:37;;;;;;;18.15;6.35;;;;;;;19.87;100.00;100128.47;12188772;19;20035;-78
2022/10/29 16:05:41;;;;;;;18.37;6.00;;;;;;;19.70;100.00;100128.19;12210483;19;20010;-77
2022/10/29 16:09:47;;;;;;;15.30;5.43;;;;;;;19.53;100.00;100134.25;12208338;19;20007;-78
2022/10/29 16:13:49;;;;;;;15.48;6.03;;;;;;;19.34;100.00;100120.28;12188667;19;20686;-79
2022/10/29 16:17:55;;;;;;;19.55;6.03;;;;;;;19.19;100.00;100123.28;12215099;19;20022;-78
2022/10/29 16:21:59;;;;;;;20.02;5.85;;;;;;;19.04;100.00;100127.09;12215310;19;20483;-78
2022/10/29 16:26:01;;;;;;;14.63;7.10;;;;;;;18.88;100.00;100129.22;12193547;19;20354;-78
2022/10/29 16:30:03;;;;;;;15.37;6.10;;;;;;;18.75;100.00;100127.16;12202304;19;20014;-80
2022/10/29 16:34:12;;;;;;;23.55;7.13;;;;;;;18.61;100.00;100122.25;12214364;19;20006;-79
2022/10/29 16:38:16;;;;;;;16.80;5.97;;;;;;;18.47;100.00;100124.06;12190004;19;20007;-77
2022/10/29 16:42:28;;;;;;;20.55;6.07;;;;;;;18.37;100.00;100115.81;12205183;19;20447;-81
2022/10/29 16:46:29;;;;;;;17.58;6.18;;;;;;;18.28;100.00;100109.22;12211832;19;20019;-83
2022/10/29 16:50:33;;;;;;;21.55;6.93;;;;;;;18.21;100.00;100113.19;12185078;19;20019;-82
2022/10/29 16:54:35;;;;;;;17.45;6.95;;;;;;;18.14;100.00;100115.47;12209867;19;20018;-79
2022/10/29 16:58:36;;;;;;;15.10;6.60;;;;;;;18.10;100.00;100111.59;12189829;19;20006;-79
2022/10/29 17:02:39;;;;;;;14.90;7.05;;;;;;;18.09;100.00;100101.59;12211192;19;20031;-80
2022/10/29 17:06:41;;;;;;;;;;;;;;;18.10;100.00;100110.78;12211847;19;20169;-79
2022/10/29 17:10:42;;;;;;;14.95;6.30;;;;;;;18.10;100.00;100114.38;12188776;19;20336;-80
2022/10/29 17:14:44;;;;;;;19.60;6.95;;;;;;;18.07;100.00;100108.56;12209949;19;20030;-80
2022/10/29 17:18:49;;;;;;;12.88;5.70;;;;;;;18.01;100.00;100116.16;12211369;19;20065;-79
2022/10/29 17:22:51;;;;;;;21.55;8.45;;;;;;;17.95;100.00;100117.31;12195074;19;20495;-80
2022/10/29 17:26:53;;;;;;;;;;;;;;;17.85;100.00;100117.41;12222606;19;20018;-79
2022/10/29 17:30:55;;;;;;;21.75;6.80;;;;;;;17.80;100.00;100114.66;12224364;19;19911;-79
2022/10/29 17:34:58;;;;;;;21.38;7.35;;;;;;;17.72;100.00;100105.75;12200282;19;20015;-80
2022/10/29 17:38:59;;;;;;;;;;;;;;;17.68;100.00;100112.19;12223805;19;20075;-80
2022/10/29 17:43:02;;;;;;;20.20;5.88;;;;;;;17.65;100.00;100113.59;12221307;19;19915;-78
2022/10/29 17:47:03;;;;;;;19.80;6.00;;;;;;;17.61;100.00;100118.09;12194562;19;20018;-79
2022/10/29 17:51:05;;;;;;;13.40;6.65;;;;;;;17.57;100.00;100111.44;12217425;19;20264;-80
2022/10/29 17:55:07;;;;;;;20.08;6.68;;;;;;;17.54;100.00;100118.41;12217446;19;20011;-79
2022/10/29 17:59:09;;;;;;;16.07;6.27;;;;;;;17.51;100.00;100112.59;12216042;19;20007;-77
2022/10/29 18:03:11;;;;;;;12.88;6.70;;;;;;;17.48;100.00;100118.72;12272542;19;20028;-77
2022/10/29 18:07:12;;;;;;;21.03;6.57;;;;;;;17.44;100.00;100115.69;12247717;19;20003;-78
2022/10/29 18:11:19;;;;;;;15.90;7.05;;;;;;;17.40;100.00;100119.34;12203269;19;20007;-80
2022/10/29 18:15:20;;;;;;;13.98;6.15;;;;;;;17.34;100.00;100120.47;12218921;19;20007;-81
2022/10/29 18:19:22;;;;;;;15.93;5.53;;;;;;;17.28;100.00;100116.88;12219230;19;20314;-79
2022/10/29 18:23:24;;;;;;;17.80;5.93;;;;;;;17.24;100.00;100126.94;12201120;19;20062;-80
2022/10/29 18:27:27;;;;;;;21.73;8.52;;;;;;;17.21;100.00;100136.72;12217037;19;20022;-80
2022/10/29 18:31:30;;;;;;;14.18;5.53;;;;;;;17.22;100.00;100135.59;12219622;19;20030;-81
2022/10/29 18:35:31;;;;;;;;;;;;;;;17.22;100.00;100134.75;12196198;19;20009;-81
2022/10/29 18:39:33;;;;;;;14.82;6.55;;;;;;;17.20;100.00;100140.63;12219453;19;20598;-79